Time;durP1;ratioP1;P1;durP2;ratioP2;P2;SDS_P1;SDS_P2;PMS_P1;PMS_P2;Temp;Humidity;BMP_temperature;BMP_pressure;BME280_temperature;BME280_humidity;BME280_pressure;Samples;Min_cycle;Max_cycle;Signal;HPM_P1;HPM_P2
2023/05/08 00:00:37;;;;;;;0.10;0.10;;;16.50;99.90;;;;;;5071635;28;20409;-83
2023/05/08 00:03:03;;;;;;;0.10;0.10;;;16.50;99.90;;;;;;5072096;28;20201;-84
2023/05/08 00:05:29;;;;;;;0.10;0.10;;;16.30;99.90;;;;;;5072598;28;20260;-84
2023/05/08 00:08:00;;;;;;;0.10;0.10;;;16.10;99.90;;;;;;5088770;28;20280;-84
2023/05/08 00:10:26;;;;;;;0.10;0.10;;;16.00;99.90;;;;;;5073859;28;20685;-84
2023/05/08 00:12:53;;;;;;;0.10;0.10;;;16.00;99.90;;;;;;5072361;28;20207;-84
2023/05/08 00:15:18;;;;;;;0.10;0.10;;;15.90;99.90;;;;;;5071949;28;20196;-84
2023/05/08 00:17:44;;;;;;;0.10;0.10;;;16.10;99.90;;;;;;5070454;28;20684;-83
2023/05/08 00:20:10;;;;;;;0.10;0.10;;;16.30;99.90;;;;;;5074068;28;20208;-84
2023/05/08 00:22:36;;;;;;;0.10;0.10;;;16.40;99.90;;;;;;5071553;28;20189;-84
2023/05/08 00:25:03;;;;;;;0.10;0.10;;;16.40;99.90;;;;;;5070115;28;20191;-83
2023/05/08 00:27:28;;;;;;;0.10;0.10;;;16.50;99.90;;;;;;5071839;28;20189;-84
2023/05/08 00:29:54;;;;;;;0.10;0.10;;;16.60;99.90;;;;;;5072288;28;20270;-84
2023/05/08 00:32:20;;;;;;;0.10;0.10;;;16.70;99.90;;;;;;5069111;28;20189;-84
2023/05/08 00:34:45;;;;;;;0.10;0.10;;;16.70;99.90;;;;;;5072253;28;20238;-84
2023/05/08 00:37:11;;;;;;;0.10;0.10;;;16.60;99.90;;;;;;5071032;28;20180;-83
2023/05/08 00:39:36;;;;;;;0.10;0.10;;;16.60;99.90;;;;;;5071995;28;20555;-83
2023/05/08 00:42:02;;;;;;;0.10;0.10;;;16.60;99.90;;;;;;5073159;28;20256;-84
2023/05/08 00:44:27;;;;;;;0.10;0.10;;;16.50;99.90;;;;;;5072286;28;20302;-84
2023/05/08 00:46:53;;;;;;;0.10;0.10;;;16.30;99.90;;;;;;5071680;28;20176;-84
2023/05/08 00:49:19;;;;;;;0.10;0.10;;;16.40;99.90;;;;;;5069999;28;20261;-84
2023/05/08 00:51:48;;;;;;;0.10;0.10;;;16.40;99.90;;;;;;5073474;28;20526;-83
2023/05/08 00:54:14;;;;;;;0.10;0.10;;;16.40;99.90;;;;;;5072739;28;20177;-84
2023/05/08 00:56:39;;;;;;;0.10;0.10;;;16.50;99.90;;;;;;5073193;28;20250;-84
2023/05/08 00:59:10;;;;;;;0.10;0.10;;;16.50;99.90;;;;;;5072332;28;20650;-83
2023/05/08 01:01:37;;;;;;;0.10;0.10;;;16.50;99.90;;;;;;5070257;28;20295;-84
2023/05/08 01:04:03;;;;;;;0.10;0.10;;;16.50;99.90;;;;;;5072824;28;20714;-84
2023/05/08 01:06:29;;;;;;;0.10;0.10;;;16.50;99.90;;;;;;5070982;28;20184;-84
2023/05/08 01:08:54;;;;;;;0.10;0.10;;;16.50;99.90;;;;;;5071854;28;20637;-83
2023/05/08 01:11:28;;;;;;;0.10;0.10;;;16.60;99.90;;;;;;5072307;28;20703;-83
2023/05/08 01:14:19;;;;;;;0.10;0.10;;;16.70;99.90;;;;;;5071326;28;20791;-84
2023/05/08 01:17:09;;;;;;;0.10;0.10;;;16.50;99.90;;;;;;5071591;28;20184;-85
2023/05/08 01:19:53;;;;;;;0.10;0.10;;;16.10;99.90;;;;;;5071512;28;20238;-84
2023/05/08 01:22:35;;;;;;;0.10;0.10;;;16.00;99.90;;;;;;5071854;28;20193;-83
2023/05/08 01:25:15;;;;;;;0.10;0.10;;;15.80;99.90;;;;;;5072008;28;20189;-84
2023/05/08 01:28:12;;;;;;;0.10;0.10;;;15.70;99.90;;;;;;5072873;28;20213;-84
2023/05/08 01:31:06;;;;;;;0.10;0.10;;;15.70;99.90;;;;;;5076216;28;20219;-83
2023/05/08 01:33:58;;;;;;;0.10;0.10;;;15.70;99.90;;;;;;5075573;28;20493;-83
2023/05/08 01:36:54;;;;;;;0.10;0.10;;;15.60;99.90;;;;;;5077924;28;20181;-84
2023/05/08 01:39:33;;;;;;;0.10;0.10;;;15.50;99.90;;;;;;5077642;28;20195;-84
2023/05/08 01:42:07;;;;;;;0.10;0.10;;;15.50;99.90;;;;;;5078410;28;20275;-84
2023/05/08 01:44:40;;;;;;;0.10;0.10;;;15.50;99.90;;;;;;5075122;28;20250;-84
2023/05/08 01:47:08;;;;;;;0.10;0.10;;;15.40;99.90;;;;;;5078518;28;20204;-84
2023/05/08 01:49:40;;;;;;;0.10;0.10;;;15.50;99.90;;;;;;5076910;28;20293;-84
2023/05/08 01:52:12;;;;;;;0.10;0.10;;;15.40;99.90;;;;;;5075248;28;20169;-84
2023/05/08 01:55:03;;;;;;;0.10;0.10;;;15.30;99.90;;;;;;5076157;28;20200;-85
2023/05/08 01:57:33;;;;;;;0.10;0.10;;;15.20;99.90;;;;;;5078542;28;20276;-85
2023/05/08 02:00:02;;;;;;;0.10;0.10;;;15.20;99.90;;;;;;5075009;28;20680;-84
2023/05/08 02:02:33;;;;;;;0.10;0.10;;;15.20;99.90;;;;;;5075552;28;20192;-84
2023/05/08 02:05:04;;;;;;;0.10;0.10;;;15.20;99.90;;;;;;5076942;28;20183;-83
2023/05/08 02:07:34;;;;;;;0.10;0.10;;;15.10;99.90;;;;;;5075358;28;20181;-83
2023/05/08 02:10:01;;;;;;;0.10;0.10;;;15.00;99.90;;;;;;5074874;28;20219;-83
2023/05/08 02:12:28;;;;;;;0.10;0.10;;;15.00;99.90;;;;;;5077972;28;20264;-84
2023/05/08 02:14:55;;;;;;;0.10;0.10;;;14.90;99.90;;;;;;5075286;28;20557;-84
2023/05/08 02:17:21;;;;;;;0.10;0.10;;;14.90;99.90;;;;;;5076292;28;20179;-83
2023/05/08 02:19:49;;;;;;;0.10;0.10;;;14.90;99.90;;;;;;5075169;28;20205;-83
2023/05/08 02:22:17;;;;;;;0.10;0.10;;;14.80;99.90;;;;;;5073207;28;20707;-84
2023/05/08 02:24:44;;;;;;;0.10;0.10;;;14.90;99.90;;;;;;5074521;28;20688;-84
2023/05/08 02:27:11;;;;;;;0.10;0.10;;;14.90;99.90;;;;;;5073616;28;20208;-84
2023/05/08 02:29:37;;;;;;;0.10;0.10;;;14.80;99.90;;;;;;5076153;28;20223;-84
2023/05/08 02:32:03;;;;;;;0.10;0.10;;;14.80;99.90;;;;;;5078121;28;20251;-82
2023/05/08 02:34:30;;;;;;;0.03;0.03;;;14.70;99.90;;;;;;5074974;28;20649;-84
2023/05/08 02:36:57;;;;;;;0.10;0.10;;;14.70;99.90;;;;;;5075665;28;20199;-83
2023/05/08 02:39:27;;;;;;;0.10;0.10;;;14.70;99.90;;;;;;5074867;28;20190;-84
2023/05/08 02:41:53;;;;;;;0.10;0.10;;;14.60;99.90;;;;;;5073325;28;20557;-84
2023/05/08 02:44:18;;;;;;;0.10;0.10;;;14.50;99.90;;;;;;5073694;28;20177;-84
2023/05/08 02:46:56;;;;;;;0.10;0.10;;;14.60;99.90;;;;;;5074567;28;20186;-84
2023/05/08 02:49:50;;;;;;;0.10;0.10;;;14.50;99.90;;;;;;5075679;28;20200;-84
2023/05/08 02:52:28;;;;;;;0.10;0.10;;;14.40;99.90;;;;;;5082079;28;20195;-83
2023/05/08 02:55:02;;;;;;;0.10;0.10;;;14.40;99.90;;;;;;5071608;28;20763;-84
2023/05/08 02:57:46;;;;;;;0.10;0.10;;;14.40;99.90;;;;;;5073899;28;20173;-85
2023/05/08 03:00:19;;;;;;;0.10;0.10;;;14.40;99.90;;;;;;5070206;28;20215;-83
2023/05/08 03:03:18;;;;;;;0.03;0.03;;;14.30;99.90;;;;;;5075102;28;20199;-82
2023/05/08 03:05:50;;;;;;;0.10;0.10;;;14.30;99.90;;;;;;5073114;28;20191;-83
2023/05/08 03:08:22;;;;;;;0.10;0.10;;;14.30;99.90;;;;;;5072115;28;20173;-82
2023/05/08 03:10:51;;;;;;;0.10;0.10;;;14.30;99.90;;;;;;5075381;28;20215;-83
2023/05/08 03:13:18;;;;;;;0.10;0.10;;;14.30;99.90;;;;;;5076015;28;20219;-83
2023/05/08 03:15:49;;;;;;;0.10;0.10;;;14.20;99.90;;;;;;5071988;28;20187;-83
2023/05/08 03:18:18;;;;;;;0.10;0.10;;;14.20;99.90;;;;;;5074034;28;20746;-83
2023/05/08 03:20:46;;;;;;;0.10;0.10;;;14.20;99.90;;;;;;5072340;28;20220;-84
2023/05/08 03:23:15;;;;;;;0.10;0.10;;;14.20;99.90;;;;;;5071938;28;20195;-82
2023/05/08 03:25:42;;;;;;;0.10;0.10;;;14.10;99.90;;;;;;5075460;28;20188;-84
2023/05/08 03:28:09;;;;;;;0.10;0.10;;;14.10;99.90;;;;;;5076552;28;20299;-83
2023/05/08 03:30:36;;;;;;;0.10;0.10;;;14.10;99.90;;;;;;5073376;28;20263;-83
2023/05/08 03:33:04;;;;;;;0.10;0.10;;;14.10;99.90;;;;;;5075490;28;20176;-83
2023/05/08 03:35:30;;;;;;;0.10;0.10;;;14.10;99.90;;;;;;5075256;28;20971;-84
2023/05/08 03:37:57;;;;;;;0.10;0.10;;;14.00;99.90;;;;;;5073602;28;20215;-82
2023/05/08 03:40:23;;;;;;;0.07;0.07;;;14.00;99.90;;;;;;5074895;28;20200;-83
2023/05/08 03:42:49;;;;;;;0.00;0.00;;;14.00;99.90;;;;;;5072219;28;20679;-84
2023/05/08 03:45:16;;;;;;;0.10;0.10;;;14.00;99.90;;;;;;5071478;28;20206;-83
2023/05/08 03:47:42;;;;;;;0.10;0.10;;;13.90;99.90;;;;;;5075472;28;20191;-83
2023/05/08 03:50:08;;;;;;;0.10;0.10;;;13.90;99.90;;;;;;5076870;28;20627;-83
2023/05/08 03:52:34;;;;;;;0.10;0.10;;;13.90;99.90;;;;;;5077748;28;20222;-82
2023/05/08 03:55:03;;;;;;;0.10;0.10;;;14.00;99.90;;;;;;5077582;28;20688;-83
2023/05/08 03:57:53;;;;;;;0.10;0.10;;;13.90;99.90;;;;;;5080796;28;20246;-83
2023/05/08 04:00:56;;;;;;;0.10;0.10;;;13.90;99.90;;;;;;5030070;28;20808;-83
2023/05/08 04:03:50;;;;;;;0.10;0.10;;;13.90;99.90;;;;;;5078417;28;20239;-82
2023/05/08 04:06:26;;;;;;;0.10;0.10;;;13.90;99.90;;;;;;5074864;28;20176;-83
2023/05/08 04:09:26;;;;;;;0.10;0.10;;;13.90;99.90;;;;;;5075290;28;20210;-83
2023/05/08 04:12:16;;;;;;;0.10;0.10;;;13.90;99.90;;;;;;5073545;28;20580;-82
2023/05/08 04:14:52;;;;;;;0.10;0.10;;;13.90;99.90;;;;;;5075318;28;20653;-83
2023/05/08 04:17:35;;;;;;;0.10;0.10;;;13.80;99.90;;;;;;5074830;28;20174;-84
2023/05/08 04:20:03;;;;;;;0.10;0.10;;;13.80;99.90;;;;;;5076178;28;20297;-83
2023/05/08 04:22:31;;;;;;;0.10;0.10;;;13.80;99.90;;;;;;5072950;28;20195;-83
2023/05/08 04:25:00;;;;;;;0.10;0.10;;;13.80;99.90;;;;;;5075571;28;20219;-83
2023/05/08 04:27:26;;;;;;;0.10;0.10;;;13.60;99.90;;;;;;5071326;28;20186;-82
2023/05/08 04:29:53;;;;;;;0.10;0.10;;;13.70;99.90;;;;;;5071134;28;20277;-83
2023/05/08 04:32:19;;;;;;;0.10;0.10;;;13.70;99.90;;;;;;5071762;28;20183;-82
2023/05/08 04:34:45;;;;;;;0.03;0.03;;;13.70;99.90;;;;;;5074659;28;20688;-83
2023/05/08 04:37:25;;;;;;;0.10;0.10;;;13.70;99.90;;;;;;5072051;28;20182;-82
2023/05/08 04:39:51;;;;;;;0.10;0.10;;;13.60;99.90;;;;;;5074287;28;20309;-83
2023/05/08 04:42:17;;;;;;;0.10;0.10;;;13.60;99.90;;;;;;5073393;28;20212;-82
2023/05/08 04:44:42;;;;;;;0.10;0.10;;;13.60;99.90;;;;;;5074629;28;21053;-83
2023/05/08 04:47:08;;;;;;;0.10;0.10;;;13.50;99.90;;;;;;5071697;28;20181;-83
2023/05/08 04:49:33;;;;;;;4.23;4.03;;;13.50;99.90;;;;;;5074674;28;20352;-83
2023/05/08 04:51:59;;;;;;;0.10;0.10;;;13.50;99.90;;;;;;5072823;28;20558;-82
2023/05/08 04:54:25;;;;;;;0.10;0.10;;;13.50;99.90;;;;;;5074725;28;20234;-82
2023/05/08 04:56:50;;;;;;;0.10;0.10;;;13.50;99.90;;;;;;5075382;28;20193;-82
2023/05/08 04:59:16;;;;;;;0.10;0.10;;;13.50;99.90;;;;;;5074426;28;20208;-82
2023/05/08 05:01:41;;;;;;;0.10;0.10;;;13.50;99.90;;;;;;5072897;28;20330;-82
2023/05/08 05:04:07;;;;;;;0.10;0.10;;;13.60;99.90;;;;;;5075201;28;20222;-82
2023/05/08 05:06:33;;;;;;;0.10;0.10;;;13.60;99.90;;;;;;5073411;28;20570;-82
2023/05/08 05:08:58;;;;;;;0.10;0.10;;;13.50;99.90;;;;;;5073870;28;20627;-82
2023/05/08 05:11:24;;;;;;;0.10;0.10;;;13.60;99.90;;;;;;5070916;28;20592;-83
2023/05/08 05:13:49;;;;;;;0.10;0.10;;;13.60;99.90;;;;;;5074437;28;20191;-82
2023/05/08 05:16:15;;;;;;;0.10;0.10;;;13.50;99.90;;;;;;5071997;28;20187;-83
2023/05/08 05:18:40;;;;;;;0.10;0.10;;;13.60;99.90;;;;;;5071925;28;20236;-83
2023/05/08 05:21:06;;;;;;;0.10;0.10;;;13.60;99.90;;;;;;5072088;28;20219;-82
2023/05/08 05:23:31;;;;;;;0.10;0.10;;;13.70;99.90;;;;;;5070441;28;20190;-82
2023/05/08 05:25:57;;;;;;;0.10;0.10;;;13.80;99.90;;;;;;5071676;28;20208;-83
2023/05/08 05:28:22;;;;;;;0.10;0.10;;;13.70;99.90;;;;;;5070747;28;20217;-82
2023/05/08 05:30:48;;;;;;;0.10;0.10;;;13.60;99.90;;;;;;5072665;28;20221;-82
2023/05/08 05:33:13;;;;;;;0.10;0.10;;;13.60;99.90;;;;;;5071178;28;20173;-82
2023/05/08 05:35:39;;;;;;;0.10;0.10;;;13.60;99.90;;;;;;5075740;28;20192;-82
2023/05/08 05:38:05;;;;;;;0.10;0.10;;;13.60;99.90;;;;;;5074059;28;20252;-83
2023/05/08 05:40:30;;;;;;;0.10;0.10;;;13.60;99.90;;;;;;5072714;28;20206;-83
2023/05/08 05:42:56;;;;;;;0.10;0.10;;;13.60;99.90;;;;;;5075871;28;20184;-83
2023/05/08 05:45:21;;;;;;;0.10;0.10;;;13.50;99.90;;;;;;5071891;28;20623;-83
2023/05/08 05:47:48;;;;;;;0.10;0.10;;;13.50;99.90;;;;;;5079006;28;20280;-83
2023/05/08 05:50:17;;;;;;;0.10;0.10;;;13.50;99.90;;;;;;5075468;28;20205;-83
2023/05/08 05:52:43;;;;;;;0.10;0.10;;;13.50;99.90;;;;;;5071479;28;20216;-82
2023/05/08 05:55:08;;;;;;;0.10;0.10;;;13.60;99.90;;;;;;5074778;28;20198;-82
2023/05/08 05:57:34;;;;;;;0.10;0.10;;;13.60;99.90;;;;;;5070340;28;20198;-82
2023/05/08 05:59:59;;;;;;;0.10;0.10;;;13.60;99.90;;;;;;5073354;28;20425;-83
2023/05/08 06:02:25;;;;;;;0.10;0.10;;;13.70;99.90;;;;;;5076088;28;20184;-82
2023/05/08 06:04:51;;;;;;;0.10;0.10;;;13.70;99.90;;;;;;5076297;28;20204;-81
2023/05/08 06:07:16;;;;;;;0.10;0.10;;;13.60;99.90;;;;;;5078264;28;20235;-82
2023/05/08 06:09:42;;;;;;;0.10;0.10;;;13.70;99.90;;;;;;5079982;28;20205;-82
2023/05/08 06:12:08;;;;;;;0.10;0.10;;;13.70;99.90;;;;;;5075713;28;20202;-81
2023/05/08 06:14:33;;;;;;;0.10;0.10;;;13.80;99.90;;;;;;5078941;28;20192;-82
2023/05/08 06:16:59;;;;;;;0.10;0.10;;;13.70;99.90;;;;;;5074403;28;20187;-83
2023/05/08 06:19:25;;;;;;;0.10;0.10;;;13.60;99.90;;;;;;5076724;28;20852;-82
2023/05/08 06:21:50;;;;;;;0.10;0.10;;;13.60;99.90;;;;;;5075963;28;20182;-83
2023/05/08 06:24:16;;;;;;;0.73;0.73;;;13.60;99.90;;;;;;5075270;28;20335;-82
2023/05/08 06:26:42;;;;;;;0.10;0.10;;;13.60;99.90;;;;;;5077474;28;20285;-84
2023/05/08 06:29:07;;;;;;;0.10;0.10;;;13.50;99.90;;;;;;5076713;28;20640;-82
2023/05/08 06:31:33;;;;;;;0.00;0.00;;;13.50;99.90;;;;;;5077132;28;20230;-81
2023/05/08 06:33:58;;;;;;;0.10;0.10;;;13.60;99.90;;;;;;5074337;28;20201;-82
2023/05/08 06:36:24;;;;;;;0.10;0.10;;;13.60;99.90;;;;;;5077310;28;20185;-82
2023/05/08 06:38:49;;;;;;;0.10;0.10;;;13.60;99.90;;;;;;5075611;28;20191;-82
2023/05/08 06:41:15;;;;;;;0.10;0.10;;;13.60;99.90;;;;;;5074325;28;20213;-82
2023/05/08 06:43:40;;;;;;;0.10;0.10;;;13.60;99.90;;;;;;5076091;28;20279;-82
2023/05/08 06:46:06;;;;;;;0.10;0.10;;;13.60;99.90;;;;;;5074423;28;20410;-81
2023/05/08 06:48:32;;;;;;;0.10;0.10;;;13.70;99.90;;;;;;5076416;28;20193;-81
2023/05/08 06:50:57;;;;;;;0.00;0.00;;;13.80;99.90;;;;;;5080050;28;20228;-81
2023/05/08 06:53:23;;;;;;;0.10;0.10;;;13.90;99.90;;;;;;5075202;28;20187;-81
2023/05/08 06:55:48;;;;;;;0.10;0.10;;;13.90;99.90;;;;;;5077627;28;20280;-80
2023/05/08 06:58:14;;;;;;;0.10;0.10;;;14.00;99.90;;;;;;5072839;28;20189;-81
2023/05/08 07:00:41;;;;;;;0.10;0.10;;;14.10;99.90;;;;;;5075955;28;20217;-80
2023/05/08 07:03:06;;;;;;;0.10;0.10;;;14.20;99.90;;;;;;5075966;28;20208;-81
2023/05/08 07:05:32;;;;;;;0.10;0.10;;;14.10;99.90;;;;;;5076530;28;20291;-82
2023/05/08 07:07:57;;;;;;;0.10;0.10;;;14.20;99.90;;;;;;5079819;28;20194;-82
2023/05/08 07:10:23;;;;;;;0.10;0.10;;;14.20;99.90;;;;;;5081173;28;20214;-82
2023/05/08 07:12:49;;;;;;;0.10;0.10;;;14.20;99.90;;;;;;5080900;28;20594;-82
2023/05/08 07:15:15;;;;;;;0.10;0.10;;;14.20;99.90;;;;;;5079465;28;20187;-82
2023/05/08 07:17:41;;;;;;;0.10;0.10;;;14.20;99.90;;;;;;5081027;28;20229;-82
2023/05/08 07:20:07;;;;;;;0.03;0.03;;;14.30;99.90;;;;;;5079283;28;20208;-82
2023/05/08 07:22:33;;;;;;;0.10;0.10;;;14.60;99.90;;;;;;5076250;28;20826;-81
2023/05/08 07:24:59;;;;;;;0.10;0.10;;;14.60;99.90;;;;;;5074552;28;20192;-82
2023/05/08 07:27:24;;;;;;;0.10;0.10;;;14.80;99.90;;;;;;5070922;28;20198;-83
2023/05/08 07:29:50;;;;;;;0.10;0.10;;;15.00;99.90;;;;;;5072307;28;20299;-83
2023/05/08 07:32:16;;;;;;;0.10;0.10;;;14.90;99.90;;;;;;5074451;28;20210;-83
2023/05/08 07:34:42;;;;;;;0.40;0.40;;;15.10;99.90;;;;;;5073242;28;20560;-83
2023/05/08 07:37:07;;;;;;;0.10;0.10;;;14.80;99.90;;;;;;5072648;28;20192;-85
2023/05/08 07:39:33;;;;;;;0.10;0.10;;;15.00;99.90;;;;;;5072497;28;20195;-84
2023/05/08 07:41:59;;;;;;;0.10;0.10;;;15.20;99.90;;;;;;5072138;28;20668;-83
2023/05/08 07:44:24;;;;;;;0.10;0.10;;;15.10;99.90;;;;;;5076788;28;20184;-83
2023/05/08 07:46:50;;;;;;;0.10;0.10;;;15.50;99.90;;;;;;5078748;28;20246;-83
2023/05/08 07:49:15;;;;;;;0.10;0.10;;;15.50;99.90;;;;;;5074102;28;20181;-85
2023/05/08 07:51:41;;;;;;;0.10;0.10;;;15.80;99.90;;;;;;5074785;28;20227;-84
2023/05/08 07:54:06;;;;;;;0.07;0.07;;;15.90;99.90;;;;;;5074591;28;20193;-84
2023/05/08 07:56:32;;;;;;;0.10;0.10;;;15.90;99.90;;;;;;5075650;28;20192;-84
2023/05/08 07:58:57;;;;;;;0.10;0.10;;;15.60;99.90;;;;;;5072968;28;20180;-84
2023/05/08 08:01:23;;;;;;;0.10;0.10;;;15.70;99.90;;;;;;5074742;28;20814;-85
2023/05/08 08:03:48;;;;;;;0.10;0.10;;;15.80;99.90;;;;;;5074008;28;20193;-83
2023/05/08 08:06:14;;;;;;;0.10;0.10;;;15.50;99.90;;;;;;5074252;28;20192;-82
2023/05/08 08:08:40;;;;;;;0.10;0.10;;;15.50;99.90;;;;;;5072534;28;20664;-83
2023/05/08 08:11:06;;;;;;;0.10;0.10;;;15.60;99.90;;;;;;5072976;28;22258;-84
2023/05/08 08:13:32;;;;;;;0.10;0.10;;;15.90;99.90;;;;;;5071747;28;20176;-83
2023/05/08 08:15:58;;;;;;;0.10;0.10;;;15.80;99.90;;;;;;5078800;28;20199;-84
2023/05/08 08:18:24;;;;;;;0.10;0.10;;;15.80;99.90;;;;;;5088793;28;20181;-83
2023/05/08 08:20:50;;;;;;;0.10;0.10;;;15.40;99.90;;;;;;5075117;28;20228;-84
2023/05/08 08:23:16;;;;;;;0.10;0.10;;;15.30;99.90;;;;;;5074697;28;20188;-85
2023/05/08 08:25:42;;;;;;;0.10;0.10;;;15.40;99.90;;;;;;5074718;28;20192;-83
2023/05/08 08:28:07;;;;;;;0.10;0.10;;;15.40;99.90;;;;;;5072726;28;20196;-84
2023/05/08 08:30:33;;;;;;;0.10;0.10;;;15.90;99.90;;;;;;5068665;28;20215;-83
2023/05/08 08:33:01;;;;;;;0.10;0.10;;;16.10;99.90;;;;;;5072482;28;20221;-83
2023/05/08 08:35:28;;;;;;;0.10;0.10;;;16.10;99.90;;;;;;5063604;28;20619;-82
2023/05/08 08:37:54;;;;;;;0.10;0.10;;;16.20;99.90;;;;;;5074475;28;20181;-82
2023/05/08 08:40:20;;;;;;;0.10;0.10;;;16.40;99.90;;;;;;5075362;28;20235;-81
2023/05/08 08:42:46;;;;;;;0.10;0.10;;;16.50;99.90;;;;;;5077655;28;20281;-82
2023/05/08 08:45:12;;;;;;;0.10;0.10;;;16.30;99.90;;;;;;5077350;28;20555;-82
2023/05/08 08:47:41;;;;;;;0.10;0.10;;;16.30;99.90;;;;;;5078105;28;20208;-83
2023/05/08 08:50:08;;;;;;;0.10;0.10;;;16.10;99.90;;;;;;5072861;28;20212;-82
2023/05/08 08:52:50;;;;;;;0.10;0.10;;;15.90;99.90;;;;;;5076575;28;20272;-82
2023/05/08 08:55:19;;;;;;;0.10;0.10;;;15.90;99.90;;;;;;5074359;28;20564;-83
2023/05/08 08:58:24;;;;;;;0.10;0.10;;;16.20;99.90;;;;;;5077214;28;20182;-82
2023/05/08 09:00:50;;;;;;;0.10;0.10;;;16.00;99.90;;;;;;5074420;28;20895;-83
2023/05/08 09:03:16;;;;;;;0.10;0.10;;;16.10;99.90;;;;;;5070333;28;20204;-83
2023/05/08 09:05:43;;;;;;;0.10;0.10;;;16.40;99.90;;;;;;5074525;28;20189;-83
2023/05/08 09:08:11;;;;;;;0.10;0.10;;;16.80;99.90;;;;;;5072215;28;20209;-81
2023/05/08 09:10:37;;;;;;;0.10;0.10;;;16.70;99.90;;;;;;5054845;28;20228;-82
2023/05/08 09:13:03;;;;;;;0.10;0.10;;;16.60;99.90;;;;;;5071746;28;20203;-82
2023/05/08 09:15:31;;;;;;;0.10;0.10;;;16.80;99.90;;;;;;5074545;28;20744;-83
2023/05/08 09:17:57;;;;;;;0.10;0.10;;;16.50;99.90;;;;;;5063814;28;20191;-82
2023/05/08 09:20:23;;;;;;;0.10;0.10;;;16.30;99.90;;;;;;5074780;28;20551;-82
2023/05/08 09:22:51;;;;;;;0.10;0.10;;;16.30;99.90;;;;;;5074135;28;20389;-82
2023/05/08 09:25:17;;;;;;;0.10;0.10;;;16.10;99.90;;;;;;5072471;28;20263;-82
2023/05/08 09:27:44;;;;;;;0.10;0.10;;;16.00;99.90;;;;;;5078000;28;20481;-82
2023/05/08 09:30:11;;;;;;;0.10;0.10;;;16.00;99.90;;;;;;5080552;28;20221;-82
2023/05/08 09:32:40;;;;;;;0.10;0.10;;;16.40;99.90;;;;;;5079241;28;20189;-82
2023/05/08 09:35:07;;;;;;;0.10;0.10;;;16.70;99.90;;;;;;5077812;28;20233;-82
2023/05/08 09:37:36;;;;;;;0.10;0.10;;;17.10;99.90;;;;;;5073818;28;20708;-83
2023/05/08 09:40:19;;;;;;;0.10;0.10;;;16.90;99.90;;;;;;5072685;28;21073;-83
2023/05/08 09:42:46;;;;;;;0.10;0.10;;;17.40;99.90;;;;;;5078599;28;20241;-83
2023/05/08 09:45:26;;;;;;;0.10;0.10;;;17.10;99.90;;;;;;5077723;28;20192;-82
2023/05/08 09:47:52;;;;;;;0.10;0.10;;;16.50;99.90;;;;;;5078921;28;20177;-81
2023/05/08 09:50:18;;;;;;;0.10;0.10;;;16.40;99.90;;;;;;5079727;28;20237;-83
2023/05/08 09:52:47;;;;;;;0.10;0.10;;;16.50;99.90;;;;;;5080510;28;20290;-82
2023/05/08 09:55:12;;;;;;;0.10;0.10;;;16.50;99.90;;;;;;5079134;28;20176;-82
2023/05/08 09:57:50;;;;;;;0.10;0.10;;;17.10;99.90;;;;;;5079046;28;20682;-83
2023/05/08 10:00:16;;;;;;;0.10;0.10;;;17.00;99.90;;;;;;5078127;28;20200;-84
2023/05/08 10:03:00;;;;;;;0.10;0.10;;;17.40;99.90;;;;;;5076637;28;20200;-82
2023/05/08 10:05:31;;;;;;;0.10;0.10;;;17.90;99.90;;;;;;5077495;28;20195;-83
2023/05/08 10:08:25;;;;;;;0.10;0.10;;;18.10;99.90;;;;;;5080045;28;20184;-82
2023/05/08 10:10:52;;;;;;;0.10;0.10;;;17.30;99.90;;;;;;5076267;28;20254;-85
2023/05/08 10:13:17;;;;;;;0.10;0.10;;;18.20;99.90;;;;;;5077880;28;20181;-83
2023/05/08 10:15:44;;;;;;;0.10;0.10;;;18.70;99.90;;;;;;5075019;28;20238;-82
2023/05/08 10:18:10;;;;;;;0.17;0.17;;;18.80;99.90;;;;;;5076147;28;20227;-84
2023/05/08 10:20:43;;;;;;;0.10;0.10;;;18.70;99.90;;;;;;5075939;28;20209;-84
2023/05/08 10:23:13;;;;;;;0.10;0.10;;;18.80;99.90;;;;;;5077365;28;20189;-84
2023/05/08 10:25:45;;;;;;;0.10;0.10;;;18.80;99.90;;;;;;5076275;28;20189;-84
2023/05/08 10:28:31;;;;;;;0.10;0.10;;;19.00;99.90;;;;;;5074590;28;20178;-84
2023/05/08 10:31:00;;;;;;;0.10;0.10;;;18.60;99.90;;;;;;5076599;28;20209;-83
2023/05/08 10:33:32;;;;;;;0.10;0.10;;;18.30;99.90;;;;;;5078161;28;20526;-84
2023/05/08 10:35:59;;;;;;;0.10;0.10;;;18.90;99.90;;;;;;5075565;28;20199;-83
2023/05/08 10:38:25;;;;;;;0.10;0.10;;;19.10;99.90;;;;;;5075840;28;20622;-84
2023/05/08 10:40:56;;;;;;;0.20;0.20;;;19.10;99.90;;;;;;5072809;28;20875;-84
2023/05/08 10:43:23;;;;;;;0.10;0.10;;;17.90;99.90;;;;;;5077562;28;20223;-84
2023/05/08 10:45:50;;;;;;;0.10;0.10;;;18.20;99.90;;;;;;5076878;28;20193;-84
2023/05/08 10:48:54;;;;;;;0.10;0.10;;;18.40;99.90;;;;;;5077620;28;20203;-84
2023/05/08 10:51:50;;;;;;;0.10;0.10;;;18.00;99.90;;;;;;5076049;28;20413;-83
2023/05/08 10:54:29;;;;;;;0.10;0.10;;;18.00;99.90;;;;;;5080088;28;20582;-83
2023/05/08 10:57:10;;;;;;;0.10;0.10;;;17.50;99.90;;;;;;5078967;28;20226;-84
2023/05/08 10:59:36;;;;;;;0.10;0.10;;;17.60;99.90;;;;;;5079594;28;20177;-84
2023/05/08 11:02:06;;;;;;;0.10;0.10;;;18.20;99.90;;;;;;5075412;28;20191;-83
2023/05/08 11:04:33;;;;;;;0.10;0.10;;;18.60;99.90;;;;;;5074619;28;20189;-84
2023/05/08 11:06:58;;;;;;;0.10;0.10;;;18.50;99.90;;;;;;5077445;28;20240;-84
2023/05/08 11:09:29;;;;;;;0.10;0.10;;;17.80;99.90;;;;;;5068275;28;20188;-84
2023/05/08 11:12:18;;;;;;;0.10;0.10;;;17.80;99.90;;;;;;5075109;28;20351;-83
2023/05/08 11:15:05;;;;;;;0.10;0.10;;;17.80;99.90;;;;;;5073086;28;20207;-83
2023/05/08 11:17:31;;;;;;;0.10;0.10;;;18.50;99.90;;;;;;5075347;28;20179;-83
2023/05/08 11:19:59;;;;;;;0.10;0.10;;;18.10;99.90;;;;;;5076067;28;20212;-83
2023/05/08 11:22:27;;;;;;;0.10;0.10;;;18.60;99.90;;;;;;5072797;28;20177;-83
2023/05/08 11:25:09;;;;;;;0.20;0.20;;;18.60;99.90;;;;;;5070663;28;20189;-84
2023/05/08 11:27:47;;;;;;;0.10;0.10;;;18.80;99.90;;;;;;5075358;28;20199;-83
2023/05/08 11:30:33;;;;;;;0.10;0.10;;;19.00;99.90;;;;;;5072794;28;20220;-84
2023/05/08 11:33:05;;;;;;;0.10;0.10;;;19.20;99.90;;;;;;5073974;28;20196;-83
2023/05/08 11:35:51;;;;;;;0.10;0.10;;;19.50;99.90;;;;;;5074613;28;20178;-84
2023/05/08 11:38:22;;;;;;;0.10;0.10;;;18.40;99.90;;;;;;5074766;28;20689;-84
2023/05/08 11:41:06;;;;;;;1.27;1.27;;;18.20;99.90;;;;;;5074149;28;20212;-83
2023/05/08 11:43:32;;;;;;;0.10;0.10;;;17.70;99.90;;;;;;5070607;28;20181;-83
2023/05/08 11:46:12;;;;;;;0.10;0.10;;;17.70;99.90;;;;;;5069272;28;20801;-84
2023/05/08 11:48:37;;;;;;;0.10;0.10;;;17.40;99.90;;;;;;5070806;28;20571;-83
2023/05/08 11:51:03;;;;;;;0.10;0.10;;;17.50;99.90;;;;;;5071521;28;22157;-83
2023/05/08 11:53:30;;;;;;;0.10;0.10;;;18.10;99.90;;;;;;5072050;28;20566;-83
2023/05/08 11:55:56;;;;;;;0.10;0.10;;;18.60;99.90;;;;;;5067119;28;20658;-84
2023/05/08 11:58:21;;;;;;;0.10;0.10;;;18.70;99.90;;;;;;5072423;28;20529;-84
2023/05/08 12:00:48;;;;;;;0.20;0.20;;;18.80;99.90;;;;;;5075605;28;20211;-83
2023/05/08 12:03:18;;;;;;;0.10;0.10;;;17.80;99.90;;;;;;5078661;28;20486;-83
2023/05/08 12:05:45;;;;;;;0.10;0.10;;;17.80;99.90;;;;;;5077658;28;20196;-83
2023/05/08 12:08:13;;;;;;;0.10;0.10;;;17.80;99.90;;;;;;5074682;28;20189;-83
2023/05/08 12:10:45;;;;;;;0.10;0.10;;;18.20;99.90;;;;;;5074187;28;20265;-83
2023/05/08 12:13:18;;;;;;;0.10;0.10;;;18.20;99.90;;;;;;5073916;28;20205;-84
2023/05/08 12:15:45;;;;;;;0.10;0.10;;;18.40;99.90;;;;;;5071443;28;20184;-84
2023/05/08 12:18:10;;;;;;;0.10;0.10;;;18.60;99.90;;;;;;5073467;28;20659;-83
2023/05/08 12:20:36;;;;;;;0.10;0.10;;;18.40;99.90;;;;;;5073342;28;20254;-82
2023/05/08 12:23:02;;;;;;;0.10;0.10;;;18.00;99.90;;;;;;5071085;28;20188;-83
2023/05/08 12:25:28;;;;;;;0.10;0.10;;;18.20;99.90;;;;;;5069888;28;20191;-83
2023/05/08 12:27:55;;;;;;;0.10;0.10;;;18.00;99.90;;;;;;5069409;28;20187;-82
2023/05/08 12:30:21;;;;;;;0.10;0.10;;;17.90;99.90;;;;;;5068610;28;20219;-82
2023/05/08 12:32:47;;;;;;;0.10;0.10;;;17.70;99.90;;;;;;5071799;28;20184;-82
2023/05/08 12:35:13;;;;;;;3.03;2.73;;;18.00;99.90;;;;;;5074775;28;20181;-82
2023/05/08 12:37:39;;;;;;;0.10;0.10;;;17.80;99.90;;;;;;5073135;28;20199;-83
2023/05/08 12:40:05;;;;;;;0.10;0.10;;;17.60;99.90;;;;;;5072190;28;20192;-82
2023/05/08 12:42:50;;;;;;;0.10;0.10;;;18.00;99.90;;;;;;5069993;28;20226;-82
2023/05/08 12:45:23;;;;;;;0.10;0.10;;;17.50;99.90;;;;;;5072815;28;20187;-82
2023/05/08 12:47:51;;;;;;;0.10;0.10;;;17.10;99.90;;;;;;5073491;28;20263;-82
2023/05/08 12:50:19;;;;;;;0.10;0.10;;;17.00;99.90;;;;;;5075618;28;20212;-82
2023/05/08 12:52:45;;;;;;;0.10;0.10;;;17.20;99.90;;;;;;5072164;28;20229;-82
2023/05/08 12:55:20;;;;;;;0.10;0.10;;;17.40;99.90;;;;;;5072809;28;20586;-82
2023/05/08 12:57:46;;;;;;;0.10;0.10;;;17.90;99.90;;;;;;5068389;28;20832;-83
2023/05/08 13:00:14;;;;;;;0.10;0.10;;;17.70;99.90;;;;;;5069415;28;20266;-83